St. Margarethen - Festspielgelnde
Wetterdaten: aktuell Dienstag, 12.11.2019 16:51
Datum Zeit Temp. A. Feuchte A. Regen Wind Richtung Richtung Taupunkt Windchill Windben
12.11.2019 16:51 4,9 C 91 % 6,2 l/m 1,8 km/h (1 Bft) W-NW 301 3,6 C 4,9 C 4,8 km/h (1 Bft)
12.11.2019 15:51 5,2 C 91 % 4,4 l/m 7,4 km/h (2 Bft) W-SW 257 3,9 C 4,3 C 11,3 km/h (2 Bft)
12.11.2019 14:51 5,4 C 91 % 1,0 l/m 5,6 km/h (1 Bft) W-NW 301 4,1 C 5,4 C 8,0 km/h (2 Bft)
12.11.2019 13:50 5,6 C 91 % 2,4 l/m 6,2 km/h (2 Bft) W-NW 287 4,2 C 5,6 C 11,3 km/h (2 Bft)
12.11.2019 12:48 5,8 C 92 % 0,2 l/m 7,0 km/h (2 Bft) NW 318 4,6 C 5,3 C 12,9 km/h (3 Bft)
12.11.2019 11:48 6,4 C 91 % 0,0 l/m 1,5 km/h (1 Bft) N 352 5,0 C 6,4 C 3,2 km/h (1 Bft)
12.11.2019 10:47 6,6 C 91 % 0,0 l/m 1,8 km/h (1 Bft) N-NO 17 5,2 C 6,6 C 4,8 km/h (1 Bft)
12.11.2019 09:47 6,3 C 92 % 0,0 l/m 3,4 km/h (1 Bft) N-NO 25 5,1 C 6,3 C 8,0 km/h (2 Bft)
12.11.2019 08:46 6,2 C 92 % 0,0 l/m 8,5 km/h (2 Bft) O-NO 58 5,0 C 4,5 C 9,7 km/h (2 Bft)
12.11.2019 07:43 6,5 C 92 % 0,0 l/m 9,3 km/h (2 Bft) O-NO 57 5,3 C 4,2 C 11,3 km/h (2 Bft)
12.11.2019 06:41 7,4 C 92 % 0,0 l/m 5,6 km/h (1 Bft) O-NO 58 6,2 C 7,4 C 6,4 km/h (2 Bft)
12.11.2019 05:41 7,4 C 92 % 0,0 l/m 8,8 km/h (2 Bft) O-NO 68 6,2 C 5,5 C 9,7 km/h (2 Bft)
12.11.2019 04:41 7,5 C 91 % 0,0 l/m 4,8 km/h (1 Bft) O-SO 104 6,1 C 7,5 C 6,4 km/h (2 Bft)
12.11.2019 03:41 7,8 C 91 % 0,0 l/m 8,2 km/h (2 Bft) O 98 6,4 C 6,4 C 11,3 km/h (2 Bft)
12.11.2019 02:41 7,7 C 91 % 0,0 l/m 8,6 km/h (2 Bft) SO 125 6,3 C 6,0 C 12,9 km/h (3 Bft)
12.11.2019 01:41 7,2 C 91 % 0,0 l/m 12,8 km/h (3 Bft) SO 142 5,8 C 2,8 C 17,7 km/h (3 Bft)
12.11.2019 00:39 7,6 C 91 % 0,0 l/m 17,1 km/h (3 Bft) SO 125 6,2 C 1,3 C 24,1 km/h (4 Bft)
11.11.2019 23:36 7,9 C 90 % 0,0 l/m 17,5 km/h (3 Bft) S-SO 158 6,4 C 1,5 C 25,7 km/h (4 Bft)
11.11.2019 22:36 7,4 C 90 % 0,0 l/m 15,8 km/h (3 Bft) S-SO 163 5,9 C 1,6 C 25,7 km/h (4 Bft)
11.11.2019 21:36 7,1 C 89 % 0,0 l/m 25,8 km/h (4 Bft) O-SO 118 5,4 C -2,3 C 29,0 km/h (5 Bft)
11.11.2019 20:36 6,8 C 89 % 0,0 l/m 10,4 km/h (2 Bft) SO 130 5,1 C 3,8 C 20,9 km/h (4 Bft)
11.11.2019 19:36 6,8 C 89 % 0,0 l/m 16,2 km/h (3 Bft) O-SO 114 5,1 C 0,7 C 27,4 km/h (4 Bft)
11.11.2019 18:36 6,7 C 89 % 0,0 l/m 18,1 km/h (3 Bft) S-SO 162 5,0 C -0,2 C 25,7 km/h (4 Bft)
11.11.2019 17:36 7,3 C 87 % 0,0 l/m 8,4 km/h (2 Bft) SO 129 5,3 C 5,7 C 14,5 km/h (3 Bft)
11.11.2019 17:00 7,4 C 85 % 0,0 l/m 6,1 km/h (2 Bft) O-SO 122 5,0 C 7,4 C 14,5 km/h (3 Bft)
_ Min-Zeit 16:40 17:00 - 13:03 - - 16:43 22:16 13:03
Minimum _ 4,9 C 85 % - 0,0 km/h (0 Bft) - - 3,6 C -2,3 C 0,0 km/h (0 Bft)
_ Max-Zeit 23:30 06:56 12:19 22:16 - - 03:57 03:57 22:16
Maximum _ 7,9 C 93 % 0,2 l/m 26,3 km/h
S (4 Bft)
- - 6,5 C 7,9 C 37,0 km/h
S-SO (5 Bft)
Durchschnitt _ 6,8 C 90 % #14,2 l/m 9,3 km/h (2 Bft) O-NO - 5,3 C 4,5 C 14,3 km/h (3 Bft)